sensor_id;sensor_type;location;lat;lon;timestamp;P1;durP1;ratioP1;P2;durP2;ratioP2
49175;SDS011;35012;47.200;9.748;2023-02-01T00:00:02;6.90;;;4.53;;
49175;SDS011;35012;47.200;9.748;2023-02-01T00:02:29;7.53;;;5.17;;
49175;SDS011;35012;47.200;9.748;2023-02-01T00:04:54;6.53;;;4.70;;
49175;SDS011;35012;47.200;9.748;2023-02-01T00:07:20;6.77;;;4.40;;
49175;SDS011;35012;47.200;9.748;2023-02-01T00:09:45;6.37;;;4.10;;
49175;SDS011;35012;47.200;9.748;2023-02-01T00:12:10;3.97;;;2.87;;
49175;SDS011;35012;47.200;9.748;2023-02-01T00:14:36;4.60;;;3.00;;
49175;SDS011;35012;47.200;9.748;2023-02-01T00:17:07;4.13;;;3.17;;
49175;SDS011;35012;47.200;9.748;2023-02-01T00:19:33;5.10;;;3.70;;
49175;SDS011;35012;47.200;9.748;2023-02-01T00:21:59;5.97;;;3.80;;
49175;SDS011;35012;47.200;9.748;2023-02-01T00:24:25;5.23;;;3.93;;
49175;SDS011;35012;47.200;9.748;2023-02-01T00:26:50;5.93;;;3.97;;
49175;SDS011;35012;47.200;9.748;2023-02-01T00:29:17;5.37;;;3.47;;
49175;SDS011;35012;47.200;9.748;2023-02-01T00:31:43;4.30;;;3.27;;
49175;SDS011;35012;47.200;9.748;2023-02-01T00:34:10;5.40;;;2.97;;
49175;SDS011;35012;47.200;9.748;2023-02-01T00:36:37;3.13;;;2.70;;
49175;SDS011;35012;47.200;9.748;2023-02-01T00:39:02;4.97;;;3.50;;
49175;SDS011;35012;47.200;9.748;2023-02-01T00:41:28;4.33;;;3.20;;
49175;SDS011;35012;47.200;9.748;2023-02-01T00:43:53;4.67;;;3.17;;
49175;SDS011;35012;47.200;9.748;2023-02-01T00:46:19;6.70;;;3.07;;
49175;SDS011;35012;47.200;9.748;2023-02-01T00:48:46;4.17;;;3.10;;
49175;SDS011;35012;47.200;9.748;2023-02-01T00:51:13;4.50;;;3.23;;
49175;SDS011;35012;47.200;9.748;2023-02-01T00:53:40;5.30;;;2.70;;
49175;SDS011;35012;47.200;9.748;2023-02-01T00:56:05;3.70;;;2.93;;
49175;SDS011;35012;47.200;9.748;2023-02-01T00:58:31;4.17;;;2.90;;
49175;SDS011;35012;47.200;9.748;2023-02-01T01:03:39;4.53;;;3.10;;
49175;SDS011;35012;47.200;9.748;2023-02-01T01:06:09;4.03;;;3.13;;
49175;SDS011;35012;47.200;9.748;2023-02-01T01:08:37;4.27;;;3.30;;
49175;SDS011;35012;47.200;9.748;2023-02-01T01:11:07;4.60;;;3.03;;
49175;SDS011;35012;47.200;9.748;2023-02-01T01:13:35;5.60;;;3.33;;
49175;SDS011;35012;47.200;9.748;2023-02-01T01:16:01;4.97;;;3.27;;
49175;SDS011;35012;47.200;9.748;2023-02-01T01:18:28;3.53;;;2.73;;
49175;SDS011;35012;47.200;9.748;2023-02-01T01:20:55;4.17;;;2.83;;
49175;SDS011;35012;47.200;9.748;2023-02-01T01:23:20;5.77;;;2.80;;
49175;SDS011;35012;47.200;9.748;2023-02-01T01:25:46;4.30;;;2.80;;
49175;SDS011;35012;47.200;9.748;2023-02-01T01:28:11;3.87;;;3.30;;
49175;SDS011;35012;47.200;9.748;2023-02-01T01:30:37;3.73;;;3.00;;
49175;SDS011;35012;47.200;9.748;2023-02-01T01:33:02;3.47;;;2.80;;
49175;SDS011;35012;47.200;9.748;2023-02-01T01:35:29;4.07;;;3.20;;
49175;SDS011;35012;47.200;9.748;2023-02-01T01:37:55;3.80;;;3.00;;
49175;SDS011;35012;47.200;9.748;2023-02-01T01:40:20;4.87;;;3.07;;
49175;SDS011;35012;47.200;9.748;2023-02-01T01:42:46;4.80;;;2.97;;
49175;SDS011;35012;47.200;9.748;2023-02-01T01:45:20;4.47;;;2.50;;
49175;SDS011;35012;47.200;9.748;2023-02-01T01:47:57;3.90;;;2.87;;
49175;SDS011;35012;47.200;9.748;2023-02-01T01:50:25;3.17;;;2.67;;
49175;SDS011;35012;47.200;9.748;2023-02-01T01:53:03;3.83;;;3.00;;
49175;SDS011;35012;47.200;9.748;2023-02-01T01:55:31;9.83;;;4.07;;
49175;SDS011;35012;47.200;9.748;2023-02-01T01:57:59;11.17;;;4.80;;
49175;SDS011;35012;47.200;9.748;2023-02-01T02:00:28;9.43;;;4.50;;
49175;SDS011;35012;47.200;9.748;2023-02-01T02:03:03;9.90;;;3.90;;
49175;SDS011;35012;47.200;9.748;2023-02-01T02:05:53;4.23;;;2.77;;
49175;SDS011;35012;47.200;9.748;2023-02-01T02:08:20;3.80;;;2.47;;
49175;SDS011;35012;47.200;9.748;2023-02-01T02:10:47;3.50;;;2.10;;
49175;SDS011;35012;47.200;9.748;2023-02-01T02:13:26;2.23;;;1.80;;
49175;SDS011;35012;47.200;9.748;2023-02-01T02:15:58;4.03;;;2.40;;
49175;SDS011;35012;47.200;9.748;2023-02-01T02:18:35;2.83;;;2.20;;
49175;SDS011;35012;47.200;9.748;2023-02-01T02:21:27;3.40;;;2.33;;
49175;SDS011;35012;47.200;9.748;2023-02-01T02:27:30;2.90;;;2.00;;
49175;SDS011;35012;47.200;9.748;2023-02-01T02:30:25;2.73;;;2.50;;
49175;SDS011;35012;47.200;9.748;2023-02-01T02:35:48;3.07;;;2.40;;
49175;SDS011;35012;47.200;9.748;2023-02-01T02:38:25;4.90;;;2.70;;
49175;SDS011;35012;47.200;9.748;2023-02-01T02:41:09;3.33;;;2.37;;
49175;SDS011;35012;47.200;9.748;2023-02-01T02:44:14;3.53;;;2.63;;
49175;SDS011;35012;47.200;9.748;2023-02-01T02:47:53;4.57;;;2.50;;
49175;SDS011;35012;47.200;9.748;2023-02-01T02:50:29;4.03;;;2.43;;
49175;SDS011;35012;47.200;9.748;2023-02-01T02:53:25;4.13;;;2.40;;
49175;SDS011;35012;47.200;9.748;2023-02-01T02:56:12;2.90;;;2.33;;
49175;SDS011;35012;47.200;9.748;2023-02-01T02:58:57;3.13;;;2.00;;
49175;SDS011;35012;47.200;9.748;2023-02-01T03:01:42;3.07;;;2.10;;
49175;SDS011;35012;47.200;9.748;2023-02-01T03:04:27;2.50;;;2.07;;
49175;SDS011;35012;47.200;9.748;2023-02-01T03:06:53;4.33;;;2.17;;
49175;SDS011;35012;47.200;9.748;2023-02-01T03:11:58;3.93;;;2.00;;
49175;SDS011;35012;47.200;9.748;2023-02-01T03:14:46;3.47;;;2.40;;
49175;SDS011;35012;47.200;9.748;2023-02-01T03:17:13;2.70;;;2.13;;
49175;SDS011;35012;47.200;9.748;2023-02-01T03:19:43;2.20;;;2.00;;
49175;SDS011;35012;47.200;9.748;2023-02-01T03:22:14;3.43;;;1.97;;
49175;SDS011;35012;47.200;9.748;2023-02-01T03:24:43;2.37;;;1.93;;
49175;SDS011;35012;47.200;9.748;2023-02-01T03:27:15;2.97;;;2.30;;
49175;SDS011;35012;47.200;9.748;2023-02-01T03:29:46;3.40;;;2.57;;
49175;SDS011;35012;47.200;9.748;2023-02-01T03:32:15;3.93;;;2.50;;
49175;SDS011;35012;47.200;9.748;2023-02-01T03:34:41;3.53;;;2.70;;
49175;SDS011;35012;47.200;9.748;2023-02-01T03:37:08;3.57;;;2.53;;
49175;SDS011;35012;47.200;9.748;2023-02-01T03:42:08;3.60;;;2.10;;
49175;SDS011;35012;47.200;9.748;2023-02-01T03:44:40;3.00;;;2.50;;
49175;SDS011;35012;47.200;9.748;2023-02-01T03:47:14;2.77;;;2.20;;
49175;SDS011;35012;47.200;9.748;2023-02-01T03:49:46;2.67;;;2.27;;
49175;SDS011;35012;47.200;9.748;2023-02-01T03:52:16;2.43;;;2.20;;
49175;SDS011;35012;47.200;9.748;2023-02-01T03:54:43;3.33;;;2.20;;
49175;SDS011;35012;47.200;9.748;2023-02-01T03:57:11;2.30;;;1.80;;
49175;SDS011;35012;47.200;9.748;2023-02-01T03:59:39;3.00;;;2.17;;
49175;SDS011;35012;47.200;9.748;2023-02-01T04:02:06;2.63;;;2.17;;
49175;SDS011;35012;47.200;9.748;2023-02-01T04:04:32;3.97;;;2.00;;
49175;SDS011;35012;47.200;9.748;2023-02-01T04:06:59;3.20;;;2.23;;
49175;SDS011;35012;47.200;9.748;2023-02-01T04:09:24;3.17;;;2.60;;
49175;SDS011;35012;47.200;9.748;2023-02-01T04:11:50;2.87;;;2.23;;
49175;SDS011;35012;47.200;9.748;2023-02-01T04:14:15;3.53;;;2.60;;
49175;SDS011;35012;47.200;9.748;2023-02-01T04:16:41;3.40;;;2.50;;
49175;SDS011;35012;47.200;9.748;2023-02-01T04:19:06;3.63;;;2.90;;
49175;SDS011;35012;47.200;9.748;2023-02-01T04:21:32;4.43;;;2.80;;
49175;SDS011;35012;47.200;9.748;2023-02-01T04:23:57;3.47;;;2.30;;
49175;SDS011;35012;47.200;9.748;2023-02-01T04:26:23;3.50;;;2.50;;
49175;SDS011;35012;47.200;9.748;2023-02-01T04:28:48;4.03;;;3.40;;
49175;SDS011;35012;47.200;9.748;2023-02-01T04:31:14;5.27;;;3.30;;
49175;SDS011;35012;47.200;9.748;2023-02-01T04:33:40;5.27;;;2.90;;
49175;SDS011;35012;47.200;9.748;2023-02-01T04:36:06;4.07;;;3.07;;
49175;SDS011;35012;47.200;9.748;2023-02-01T04:38:31;6.43;;;3.13;;
49175;SDS011;35012;47.200;9.748;2023-02-01T04:40:57;5.07;;;3.40;;
49175;SDS011;35012;47.200;9.748;2023-02-01T04:43:23;4.23;;;2.90;;
49175;SDS011;35012;47.200;9.748;2023-02-01T04:45:49;5.63;;;3.20;;
49175;SDS011;35012;47.200;9.748;2023-02-01T04:48:16;4.13;;;2.80;;
49175;SDS011;35012;47.200;9.748;2023-02-01T04:50:42;3.70;;;3.00;;
49175;SDS011;35012;47.200;9.748;2023-02-01T04:53:11;4.07;;;2.87;;
49175;SDS011;35012;47.200;9.748;2023-02-01T04:55:36;4.20;;;2.97;;
49175;SDS011;35012;47.200;9.748;2023-02-01T04:58:01;3.47;;;2.87;;
49175;SDS011;35012;47.200;9.748;2023-02-01T05:00:27;3.70;;;2.63;;
49175;SDS011;35012;47.200;9.748;2023-02-01T05:02:52;6.03;;;3.10;;
49175;SDS011;35012;47.200;9.748;2023-02-01T05:05:18;4.10;;;2.70;;
49175;SDS011;35012;47.200;9.748;2023-02-01T05:07:43;4.07;;;3.10;;
49175;SDS011;35012;47.200;9.748;2023-02-01T05:10:11;4.80;;;2.90;;
49175;SDS011;35012;47.200;9.748;2023-02-01T05:12:37;3.70;;;3.10;;
49175;SDS011;35012;47.200;9.748;2023-02-01T05:15:21;3.87;;;2.80;;
49175;SDS011;35012;47.200;9.748;2023-02-01T05:17:46;5.10;;;2.67;;
49175;SDS011;35012;47.200;9.748;2023-02-01T05:20:12;3.60;;;2.80;;
49175;SDS011;35012;47.200;9.748;2023-02-01T05:22:37;3.50;;;2.50;;
49175;SDS011;35012;47.200;9.748;2023-02-01T05:25:03;3.83;;;3.03;;
49175;SDS011;35012;47.200;9.748;2023-02-01T05:27:29;3.83;;;3.00;;
49175;SDS011;35012;47.200;9.748;2023-02-01T05:29:56;4.07;;;2.97;;
49175;SDS011;35012;47.200;9.748;2023-02-01T05:32:21;6.07;;;3.60;;
49175;SDS011;35012;47.200;9.748;2023-02-01T05:34:47;4.97;;;3.47;;
49175;SDS011;35012;47.200;9.748;2023-02-01T05:37:12;4.10;;;3.27;;
49175;SDS011;35012;47.200;9.748;2023-02-01T05:39:38;5.53;;;3.50;;
49175;SDS011;35012;47.200;9.748;2023-02-01T05:42:03;5.57;;;3.50;;
49175;SDS011;35012;47.200;9.748;2023-02-01T05:44:29;4.77;;;3.87;;
49175;SDS011;35012;47.200;9.748;2023-02-01T05:46:54;5.63;;;3.70;;
49175;SDS011;35012;47.200;9.748;2023-02-01T05:49:20;5.27;;;3.77;;
49175;SDS011;35012;47.200;9.748;2023-02-01T05:51:45;5.77;;;3.63;;
49175;SDS011;35012;47.200;9.748;2023-02-01T05:54:11;5.83;;;3.70;;
49175;SDS011;35012;47.200;9.748;2023-02-01T05:56:36;7.17;;;4.20;;
49175;SDS011;35012;47.200;9.748;2023-02-01T05:59:02;5.33;;;3.93;;
49175;SDS011;35012;47.200;9.748;2023-02-01T06:01:27;5.03;;;3.40;;
49175;SDS011;35012;47.200;9.748;2023-02-01T06:03:53;3.80;;;3.40;;
49175;SDS011;35012;47.200;9.748;2023-02-01T06:06:18;8.37;;;4.33;;
49175;SDS011;35012;47.200;9.748;2023-02-01T06:08:44;4.77;;;3.90;;
49175;SDS011;35012;47.200;9.748;2023-02-01T06:11:10;13.50;;;10.37;;
49175;SDS011;35012;47.200;9.748;2023-02-01T06:13:35;8.60;;;6.47;;
49175;SDS011;35012;47.200;9.748;2023-02-01T06:16:03;11.77;;;9.10;;
49175;SDS011;35012;47.200;9.748;2023-02-01T06:18:31;7.43;;;5.70;;
49175;SDS011;35012;47.200;9.748;2023-02-01T06:20:58;18.27;;;12.40;;
49175;SDS011;35012;47.200;9.748;2023-02-01T06:23:27;12.23;;;8.10;;
49175;SDS011;35012;47.200;9.748;2023-02-01T06:25:57;10.70;;;6.90;;
49175;SDS011;35012;47.200;9.748;2023-02-01T06:28:31;13.13;;;9.80;;
49175;SDS011;35012;47.200;9.748;2023-02-01T06:30:57;12.60;;;9.30;;
49175;SDS011;35012;47.200;9.748;2023-02-01T06:33:23;12.63;;;9.63;;
49175;SDS011;35012;47.200;9.748;2023-02-01T06:35:56;15.83;;;9.77;;
49175;SDS011;35012;47.200;9.748;2023-02-01T06:38:22;14.60;;;10.30;;
49175;SDS011;35012;47.200;9.748;2023-02-01T06:40:51;13.93;;;10.37;;
49175;SDS011;35012;47.200;9.748;2023-02-01T06:43:17;18.20;;;11.37;;
49175;SDS011;35012;47.200;9.748;2023-02-01T06:45:43;21.67;;;15.83;;
49175;SDS011;35012;47.200;9.748;2023-02-01T06:48:08;16.33;;;11.17;;
49175;SDS011;35012;47.200;9.748;2023-02-01T06:50:34;14.47;;;10.03;;
49175;SDS011;35012;47.200;9.748;2023-02-01T06:53:00;10.80;;;7.10;;
49175;SDS011;35012;47.200;9.748;2023-02-01T06:55:25;7.83;;;6.13;;
49175;SDS011;35012;47.200;9.748;2023-02-01T06:57:54;7.43;;;5.73;;
49175;SDS011;35012;47.200;9.748;2023-02-01T07:00:21;13.57;;;8.00;;
49175;SDS011;35012;47.200;9.748;2023-02-01T07:02:47;14.53;;;8.63;;
49175;SDS011;35012;47.200;9.748;2023-02-01T07:05:12;13.50;;;8.67;;
49175;SDS011;35012;47.200;9.748;2023-02-01T07:07:38;12.13;;;8.03;;
49175;SDS011;35012;47.200;9.748;2023-02-01T07:10:03;14.23;;;8.77;;
49175;SDS011;35012;47.200;9.748;2023-02-01T07:12:29;11.83;;;8.20;;
49175;SDS011;35012;47.200;9.748;2023-02-01T07:14:54;12.07;;;8.83;;
49175;SDS011;35012;47.200;9.748;2023-02-01T07:17:21;12.63;;;8.53;;
49175;SDS011;35012;47.200;9.748;2023-02-01T07:19:46;12.27;;;8.40;;
49175;SDS011;35012;47.200;9.748;2023-02-01T07:22:12;14.63;;;8.57;;
49175;SDS011;35012;47.200;9.748;2023-02-01T07:24:37;13.30;;;7.90;;
49175;SDS011;35012;47.200;9.748;2023-02-01T07:27:03;13.27;;;8.00;;
49175;SDS011;35012;47.200;9.748;2023-02-01T07:29:28;9.87;;;7.23;;
49175;SDS011;35012;47.200;9.748;2023-02-01T07:31:54;11.23;;;7.37;;
49175;SDS011;35012;47.200;9.748;2023-02-01T07:34:19;10.90;;;7.00;;
49175;SDS011;35012;47.200;9.748;2023-02-01T07:36:45;11.27;;;8.13;;
49175;SDS011;35012;47.200;9.748;2023-02-01T07:39:10;16.87;;;8.30;;
49175;SDS011;35012;47.200;9.748;2023-02-01T07:41:36;11.50;;;8.50;;
49175;SDS011;35012;47.200;9.748;2023-02-01T07:44:01;10.50;;;7.90;;
49175;SDS011;35012;47.200;9.748;2023-02-01T07:46:27;9.73;;;7.30;;
49175;SDS011;35012;47.200;9.748;2023-02-01T07:48:52;12.23;;;7.67;;
49175;SDS011;35012;47.200;9.748;2023-02-01T07:51:18;10.80;;;7.33;;
49175;SDS011;35012;47.200;9.748;2023-02-01T07:53:43;11.67;;;7.70;;
49175;SDS011;35012;47.200;9.748;2023-02-01T07:56:16;9.63;;;7.63;;
49175;SDS011;35012;47.200;9.748;2023-02-01T07:58:46;10.70;;;8.03;;
49175;SDS011;35012;47.200;9.748;2023-02-01T08:01:16;9.87;;;6.40;;
49175;SDS011;35012;47.200;9.748;2023-02-01T08:03:53;8.00;;;5.20;;
49175;SDS011;35012;47.200;9.748;2023-02-01T08:06:20;7.00;;;5.10;;
49175;SDS011;35012;47.200;9.748;2023-02-01T08:08:47;8.63;;;5.60;;
49175;SDS011;35012;47.200;9.748;2023-02-01T08:11:13;9.83;;;6.23;;
49175;SDS011;35012;47.200;9.748;2023-02-01T08:13:39;9.97;;;6.63;;
49175;SDS011;35012;47.200;9.748;2023-02-01T08:16:06;8.57;;;5.60;;
49175;SDS011;35012;47.200;9.748;2023-02-01T08:18:33;8.70;;;5.83;;
49175;SDS011;35012;47.200;9.748;2023-02-01T08:21:06;7.20;;;5.27;;
49175;SDS011;35012;47.200;9.748;2023-02-01T08:23:37;6.70;;;4.27;;
49175;SDS011;35012;47.200;9.748;2023-02-01T08:26:04;6.33;;;4.60;;
49175;SDS011;35012;47.200;9.748;2023-02-01T08:28:43;6.13;;;4.10;;
49175;SDS011;35012;47.200;9.748;2023-02-01T08:31:10;5.70;;;3.30;;
49175;SDS011;35012;47.200;9.748;2023-02-01T08:33:39;4.17;;;2.93;;
49175;SDS011;35012;47.200;9.748;2023-02-01T08:36:06;4.37;;;3.37;;
49175;SDS011;35012;47.200;9.748;2023-02-01T08:38:34;5.27;;;3.00;;
49175;SDS011;35012;47.200;9.748;2023-02-01T08:41:03;4.10;;;3.10;;
49175;SDS011;35012;47.200;9.748;2023-02-01T08:43:30;3.83;;;3.20;;
49175;SDS011;35012;47.200;9.748;2023-02-01T08:45:56;3.87;;;2.73;;
49175;SDS011;35012;47.200;9.748;2023-02-01T08:48:21;4.70;;;3.47;;
49175;SDS011;35012;47.200;9.748;2023-02-01T08:50:47;4.27;;;2.97;;
49175;SDS011;35012;47.200;9.748;2023-02-01T08:53:12;4.50;;;2.53;;
49175;SDS011;35012;47.200;9.748;2023-02-01T08:55:39;5.23;;;3.30;;
49175;SDS011;35012;47.200;9.748;2023-02-01T08:58:04;4.63;;;3.00;;
49175;SDS011;35012;47.200;9.748;2023-02-01T09:00:30;5.33;;;2.93;;
49175;SDS011;35012;47.200;9.748;2023-02-01T09:02:55;8.10;;;3.93;;
49175;SDS011;35012;47.200;9.748;2023-02-01T09:05:21;5.57;;;4.33;;
49175;SDS011;35012;47.200;9.748;2023-02-01T09:07:48;8.70;;;4.50;;
49175;SDS011;35012;47.200;9.748;2023-02-01T09:10:13;4.23;;;3.27;;
49175;SDS011;35012;47.200;9.748;2023-02-01T09:12:39;5.47;;;3.27;;
49175;SDS011;35012;47.200;9.748;2023-02-01T09:15:05;3.20;;;2.60;;
49175;SDS011;35012;47.200;9.748;2023-02-01T09:17:32;3.93;;;2.60;;
49175;SDS011;35012;47.200;9.748;2023-02-01T09:19:57;3.83;;;2.77;;
49175;SDS011;35012;47.200;9.748;2023-02-01T09:22:23;4.83;;;3.10;;
49175;SDS011;35012;47.200;9.748;2023-02-01T09:24:48;4.40;;;2.47;;
49175;SDS011;35012;47.200;9.748;2023-02-01T09:27:14;2.73;;;2.43;;
49175;SDS011;35012;47.200;9.748;2023-02-01T09:29:39;2.60;;;2.20;;
49175;SDS011;35012;47.200;9.748;2023-02-01T09:32:05;2.87;;;2.10;;
49175;SDS011;35012;47.200;9.748;2023-02-01T09:34:31;2.90;;;2.10;;
49175;SDS011;35012;47.200;9.748;2023-02-01T09:36:57;2.40;;;1.70;;
49175;SDS011;35012;47.200;9.748;2023-02-01T09:39:23;3.10;;;1.80;;
49175;SDS011;35012;47.200;9.748;2023-02-01T09:44:33;7.27;;;3.10;;
49175;SDS011;35012;47.200;9.748;2023-02-01T09:47:13;4.17;;;2.83;;
49175;SDS011;35012;47.200;9.748;2023-02-01T09:49:45;3.80;;;2.90;;
49175;SDS011;35012;47.200;9.748;2023-02-01T09:52:29;4.33;;;2.93;;
49175;SDS011;35012;47.200;9.748;2023-02-01T09:54:59;3.93;;;2.93;;
49175;SDS011;35012;47.200;9.748;2023-02-01T09:57:51;6.30;;;3.80;;
49175;SDS011;35012;47.200;9.748;2023-02-01T10:00:20;5.17;;;3.60;;
49175;SDS011;35012;47.200;9.748;2023-02-01T10:02:49;4.80;;;3.73;;
49175;SDS011;35012;47.200;9.748;2023-02-01T10:05:16;7.97;;;4.67;;
49175;SDS011;35012;47.200;9.748;2023-02-01T10:07:58;6.10;;;4.47;;
49175;SDS011;35012;47.200;9.748;2023-02-01T10:10:40;33.87;;;21.00;;
49175;SDS011;35012;47.200;9.748;2023-02-01T10:13:13;19.27;;;11.10;;
49175;SDS011;35012;47.200;9.748;2023-02-01T10:16:09;12.53;;;7.47;;
49175;SDS011;35012;47.200;9.748;2023-02-01T10:18:39;9.23;;;6.33;;
49175;SDS011;35012;47.200;9.748;2023-02-01T10:21:41;8.73;;;5.60;;
49175;SDS011;35012;47.200;9.748;2023-02-01T10:29:58;6.13;;;4.30;;
49175;SDS011;35012;47.200;9.748;2023-02-01T10:32:28;8.10;;;6.67;;
49175;SDS011;35012;47.200;9.748;2023-02-01T10:34:59;16.40;;;9.40;;
49175;SDS011;35012;47.200;9.748;2023-02-01T10:37:33;13.73;;;7.97;;
49175;SDS011;35012;47.200;9.748;2023-02-01T10:40:19;11.13;;;7.87;;
49175;SDS011;35012;47.200;9.748;2023-02-01T10:42:46;12.97;;;8.50;;
49175;SDS011;35012;47.200;9.748;2023-02-01T10:45:14;7.03;;;5.80;;
49175;SDS011;35012;47.200;9.748;2023-02-01T10:47:42;8.83;;;5.53;;
49175;SDS011;35012;47.200;9.748;2023-02-01T10:50:19;11.10;;;7.33;;
49175;SDS011;35012;47.200;9.748;2023-02-01T10:55:39;4.00;;;3.40;;
49175;SDS011;35012;47.200;9.748;2023-02-01T10:58:07;4.77;;;3.20;;
49175;SDS011;35012;47.200;9.748;2023-02-01T11:00:45;3.53;;;2.63;;
49175;SDS011;35012;47.200;9.748;2023-02-01T11:03:27;3.60;;;3.03;;
49175;SDS011;35012;47.200;9.748;2023-02-01T11:05:57;3.90;;;2.70;;
49175;SDS011;35012;47.200;9.748;2023-02-01T11:08:23;3.03;;;2.37;;
49175;SDS011;35012;47.200;9.748;2023-02-01T11:10:49;5.80;;;3.50;;
49175;SDS011;35012;47.200;9.748;2023-02-01T11:13:23;4.07;;;2.57;;
49175;SDS011;35012;47.200;9.748;2023-02-01T11:15:56;8.13;;;3.90;;
49175;SDS011;35012;47.200;9.748;2023-02-01T11:18:29;5.37;;;3.10;;
49175;SDS011;35012;47.200;9.748;2023-02-01T11:20:56;7.57;;;3.47;;
49175;SDS011;35012;47.200;9.748;2023-02-01T11:23:23;4.47;;;2.60;;
49175;SDS011;35012;47.200;9.748;2023-02-01T11:25:54;3.23;;;2.53;;
49175;SDS011;35012;47.200;9.748;2023-02-01T11:28:21;4.97;;;3.20;;
49175;SDS011;35012;47.200;9.748;2023-02-01T11:30:49;8.13;;;2.80;;
49175;SDS011;35012;47.200;9.748;2023-02-01T11:33:16;9.00;;;3.43;;
49175;SDS011;35012;47.200;9.748;2023-02-01T11:35:44;7.70;;;4.23;;
49175;SDS011;35012;47.200;9.748;2023-02-01T11:38:19;10.23;;;2.90;;
49175;SDS011;35012;47.200;9.748;2023-02-01T11:40:46;6.90;;;3.67;;
49175;SDS011;35012;47.200;9.748;2023-02-01T11:43:25;5.27;;;3.57;;
49175;SDS011;35012;47.200;9.748;2023-02-01T11:46:02;8.67;;;4.13;;
49175;SDS011;35012;47.200;9.748;2023-02-01T11:48:33;11.30;;;4.10;;
49175;SDS011;35012;47.200;9.748;2023-02-01T12:02:59;4.53;;;2.80;;
49175;SDS011;35012;47.200;9.748;2023-02-01T12:09:02;3.97;;;2.60;;
49175;SDS011;35012;47.200;9.748;2023-02-01T12:11:49;7.23;;;3.07;;
49175;SDS011;35012;47.200;9.748;2023-02-01T12:17:51;9.33;;;3.43;;
49175;SDS011;35012;47.200;9.748;2023-02-01T12:29:02;4.47;;;2.63;;
49175;SDS011;35012;47.200;9.748;2023-02-01T12:44:29;7.23;;;2.53;;
49175;SDS011;35012;47.200;9.748;2023-02-01T12:47:25;5.47;;;2.80;;
49175;SDS011;35012;47.200;9.748;2023-02-01T12:57:52;7.33;;;2.80;;
49175;SDS011;35012;47.200;9.748;2023-02-01T13:00:32;5.47;;;2.87;;
49175;SDS011;35012;47.200;9.748;2023-02-01T13:05:28;4.17;;;2.60;;
49175;SDS011;35012;47.200;9.748;2023-02-01T13:08:06;4.47;;;2.60;;
49175;SDS011;35012;47.200;9.748;2023-02-01T13:13:36;4.43;;;2.20;;
49175;SDS011;35012;47.200;9.748;2023-02-01T13:18:39;4.07;;;3.23;;
49175;SDS011;35012;47.200;9.748;2023-02-01T13:24:04;11.97;;;4.40;;
49175;SDS011;35012;47.200;9.748;2023-02-01T13:26:31;5.13;;;3.20;;
49175;SDS011;35012;47.200;9.748;2023-02-01T13:37:18;10.73;;;4.97;;
49175;SDS011;35012;47.200;9.748;2023-02-01T13:46:02;12.73;;;4.03;;
49175;SDS011;35012;47.200;9.748;2023-02-01T13:51:40;12.73;;;4.30;;
49175;SDS011;35012;47.200;9.748;2023-02-01T13:54:06;7.63;;;3.80;;
49175;SDS011;35012;47.200;9.748;2023-02-01T13:56:39;5.87;;;2.93;;
49175;SDS011;35012;47.200;9.748;2023-02-01T14:13:29;6.33;;;2.90;;
49175;SDS011;35012;47.200;9.748;2023-02-01T14:29:15;9.83;;;4.20;;
49175;SDS011;35012;47.200;9.748;2023-02-01T14:31:44;8.37;;;5.57;;
49175;SDS011;35012;47.200;9.748;2023-02-01T14:34:34;19.87;;;11.17;;
49175;SDS011;35012;47.200;9.748;2023-02-01T14:37:01;16.87;;;10.63;;
49175;SDS011;35012;47.200;9.748;2023-02-01T14:42:14;21.80;;;10.67;;
49175;SDS011;35012;47.200;9.748;2023-02-01T14:44:43;18.30;;;9.20;;
49175;SDS011;35012;47.200;9.748;2023-02-01T14:47:11;20.77;;;9.67;;
49175;SDS011;35012;47.200;9.748;2023-02-01T14:52:36;14.30;;;7.43;;
49175;SDS011;35012;47.200;9.748;2023-02-01T14:55:27;15.97;;;7.70;;
49175;SDS011;35012;47.200;9.748;2023-02-01T14:58:18;12.50;;;6.20;;
49175;SDS011;35012;47.200;9.748;2023-02-01T15:00:52;8.27;;;4.20;;
49175;SDS011;35012;47.200;9.748;2023-02-01T15:09:14;11.30;;;4.40;;
49175;SDS011;35012;47.200;9.748;2023-02-01T15:11:55;9.93;;;4.90;;
49175;SDS011;35012;47.200;9.748;2023-02-01T15:14:30;8.20;;;4.10;;
49175;SDS011;35012;47.200;9.748;2023-02-01T15:16:57;11.93;;;4.63;;
49175;SDS011;35012;47.200;9.748;2023-02-01T15:19:26;9.27;;;4.53;;
49175;SDS011;35012;47.200;9.748;2023-02-01T15:21:54;5.17;;;3.10;;
49175;SDS011;35012;47.200;9.748;2023-02-01T15:24:22;4.63;;;2.60;;
49175;SDS011;35012;47.200;9.748;2023-02-01T15:26:49;8.10;;;3.67;;
49175;SDS011;35012;47.200;9.748;2023-02-01T15:29:15;17.30;;;7.50;;
49175;SDS011;35012;47.200;9.748;2023-02-01T15:31:43;17.00;;;7.10;;
49175;SDS011;35012;47.200;9.748;2023-02-01T15:34:10;15.13;;;7.00;;
49175;SDS011;35012;47.200;9.748;2023-02-01T15:36:36;8.80;;;4.30;;
49175;SDS011;35012;47.200;9.748;2023-02-01T15:42:12;5.30;;;2.33;;
49175;SDS011;35012;47.200;9.748;2023-02-01T15:44:41;7.73;;;4.33;;
49175;SDS011;35012;47.200;9.748;2023-02-01T15:47:27;4.37;;;1.67;;
49175;SDS011;35012;47.200;9.748;2023-02-01T15:49:56;5.73;;;2.00;;
49175;SDS011;35012;47.200;9.748;2023-02-01T15:52:24;4.37;;;2.83;;
49175;SDS011;35012;47.200;9.748;2023-02-01T15:54:56;5.50;;;2.53;;
49175;SDS011;35012;47.200;9.748;2023-02-01T15:57:34;7.70;;;3.30;;
49175;SDS011;35012;47.200;9.748;2023-02-01T16:00:05;5.50;;;3.17;;
49175;SDS011;35012;47.200;9.748;2023-02-01T16:02:43;8.40;;;3.20;;
49175;SDS011;35012;47.200;9.748;2023-02-01T16:10:45;2.23;;;2.00;;
49175;SDS011;35012;47.200;9.748;2023-02-01T16:13:12;1.60;;;1.40;;
49175;SDS011;35012;47.200;9.748;2023-02-01T16:15:39;2.57;;;1.40;;
49175;SDS011;35012;47.200;9.748;2023-02-01T16:18:05;2.77;;;1.40;;
49175;SDS011;35012;47.200;9.748;2023-02-01T16:20:32;2.60;;;1.80;;
49175;SDS011;35012;47.200;9.748;2023-02-01T16:23:00;2.20;;;1.37;;
49175;SDS011;35012;47.200;9.748;2023-02-01T16:25:26;1.97;;;1.40;;
49175;SDS011;35012;47.200;9.748;2023-02-01T16:27:51;3.27;;;1.37;;
49175;SDS011;35012;47.200;9.748;2023-02-01T16:30:17;1.40;;;1.27;;
49175;SDS011;35012;47.200;9.748;2023-02-01T16:32:48;1.80;;;1.40;;
49175;SDS011;35012;47.200;9.748;2023-02-01T16:35:27;3.93;;;1.50;;
49175;SDS011;35012;47.200;9.748;2023-02-01T16:37:56;1.97;;;1.57;;
49175;SDS011;35012;47.200;9.748;2023-02-01T16:40:23;2.17;;;1.43;;
49175;SDS011;35012;47.200;9.748;2023-02-01T16:42:50;2.13;;;1.20;;
49175;SDS011;35012;47.200;9.748;2023-02-01T16:45:16;3.03;;;1.30;;
49175;SDS011;35012;47.200;9.748;2023-02-01T16:47:44;2.50;;;1.40;;
49175;SDS011;35012;47.200;9.748;2023-02-01T16:50:16;1.73;;;1.30;;
49175;SDS011;35012;47.200;9.748;2023-02-01T16:52:43;1.67;;;1.10;;
49175;SDS011;35012;47.200;9.748;2023-02-01T16:55:15;3.00;;;1.50;;
49175;SDS011;35012;47.200;9.748;2023-02-01T16:57:43;2.33;;;1.93;;
49175;SDS011;35012;47.200;9.748;2023-02-01T17:00:09;2.13;;;1.80;;
49175;SDS011;35012;47.200;9.748;2023-02-01T17:02:36;1.83;;;1.37;;
49175;SDS011;35012;47.200;9.748;2023-02-01T17:05:03;2.97;;;1.70;;
49175;SDS011;35012;47.200;9.748;2023-02-01T17:07:29;1.97;;;1.60;;
49175;SDS011;35012;47.200;9.748;2023-02-01T17:09:55;2.93;;;1.53;;
49175;SDS011;35012;47.200;9.748;2023-02-01T17:12:21;1.43;;;1.20;;
49175;SDS011;35012;47.200;9.748;2023-02-01T17:14:49;2.70;;;1.70;;
49175;SDS011;35012;47.200;9.748;2023-02-01T17:17:15;2.27;;;2.03;;
49175;SDS011;35012;47.200;9.748;2023-02-01T17:19:41;2.70;;;1.60;;
49175;SDS011;35012;47.200;9.748;2023-02-01T17:22:08;4.10;;;3.80;;
49175;SDS011;35012;47.200;9.748;2023-02-01T17:24:33;2.87;;;1.80;;
49175;SDS011;35012;47.200;9.748;2023-02-01T17:26:58;2.27;;;1.77;;
49175;SDS011;35012;47.200;9.748;2023-02-01T17:29:24;1.87;;;1.50;;